^^
Datos históricos de la estación: Murcia-Puente Tocinos
Diario Informe para Diciembre 27, 2019 Unidades:  Ingés    Métrico   Ambas
Diario Semanal Mensual Anual
  Máxima: Mínima: Promedio:
Temperatura: 65.7 °F 48 °F 55.2 °F
Punto de rocio: 51.4 °F 42.4 °F 46.4 °F
Humedad: 88% 51.8% 73%
Velocidad viento: 5.2mph 0mph 2.7mph
Racha viento: 9mph - -
Viento- - SSE
Presión: 30.4 in 30.3 in -
Precipitación: 0 in    
 
 
Tabla de datos para Diciembre 27, 2019
Hora Temperatura Punto de rocio Presión Viento Velocidad viento Racha viento Humedad Intensidad lluvia(por hora) Nubes
00:04 53.8 °F 47.1 °F 30.4 in ONO 1.6 mph 4 mph 78.3% 0 in
00:09 53.8 °F 47.5 °F 30.4 in ONO 1.4 mph 3.5 mph 79% 0 in
00:14 53.8 °F 47.5 °F 30.4 in ONO 1.4 mph 3 mph 79% 0 in
00:19 53.8 °F 47.5 °F 30.4 in ONO 1.4 mph   79% 0 in
00:24 54 °F 47.7 °F 30.4 in ONO 0.6 mph   79% 0 in
00:29 54 °F 47.7 °F 30.4 in Calm   1.4 mph 79% 0 in
00:34 54 °F 47.7 °F 30.4 in Calm   3.6 mph 79% 0 in
00:39 54 °F 47.5 °F 30.4 in Calm   4.7 mph 79% 0 in
00:44 53.8 °F 47.3 °F 30.4 in SE 1.4 mph 5 mph 79% 0 in
00:49 53.4 °F 47.3 °F 30.4 in SSE 2.4 mph 5.8 mph 79.4% 0 in
00:54 53.2 °F 47.3 °F 30.4 in Sur 2.7 mph 6 mph 80% 0 in
00:59 53.2 °F 47.1 °F 30.4 in Sur 2.9 mph 5 mph 80% 0 in
01:04 53.2 °F 47.1 °F 30.4 in Sur 2.9 mph 6.4 mph 80% 0 in
01:09 53.2 °F 47.1 °F 30.4 in Sur 2.9 mph 7 mph 79.5% 0 in
01:14 53.2 °F 46.9 °F 30.4 in Sur 3.5 mph 7 mph 79% 0 in
01:19 53.2 °F 46.9 °F 30.4 in Sur 4 mph 6 mph 78.9% 0 in
01:24 53.4 °F 46.8 °F 30.4 in Sur 3.8 mph 5.2 mph 78% 0 in
01:29 53.4 °F 46.6 °F 30.4 in SSE 3.6 mph 5.8 mph 77.6% 0 in
01:34 53.4 °F 46.4 °F 30.4 in SSE 3.3 mph 6 mph 77% 0 in
01:39 53.2 °F 46.4 °F 30.4 in SSE 3.1 mph 6 mph 77.3% 0 in
01:44 53.2 °F 46.6 °F 30.4 in Sur 3 mph 5 mph 78% 0 in
01:49 53.1 °F 46.4 °F 30.4 in Sur 2.9 mph 5 mph 78% 0 in
01:54 52.9 °F 46 °F 30.4 in Sur 2.6 mph 5 mph 78% 0 in
01:59 52.5 °F 45.9 °F 30.4 in SSO 2.4 mph 5 mph 78% 0 in
02:04 52.5 °F 45.9 °F 30.4 in SSO 2.2 mph 5 mph 78% 0 in
02:09 52.5 °F 45.9 °F 30.4 in SO 2 mph 5 mph 78% 0 in
02:14 52.5 °F 45.5 °F 30.4 in NNO 2.5 mph 5 mph 77.2% 0 in
02:19 52.3 °F 45.7 °F 30.4 in NNO 2.9 mph 5 mph 77.9% 0 in
02:24 52.2 °F 45.5 °F 30.4 in NNO 2 mph 3.1 mph 78% 0 in
02:29 52.2 °F 45.5 °F 30.4 in NNO 1.4 mph 3.5 mph 78% 0 in
02:34 52.2 °F 45.5 °F 30.4 in NO 1.4 mph 3.6 mph 78% 0 in
02:39 52 °F 45.3 °F 30.4 in Oeste 1.4 mph 4 mph 78.2% 0 in
02:44 51.6 °F 45.3 °F 30.4 in Oeste 1.7 mph 3.5 mph 79% 0 in
02:49 51.6 °F 45.3 °F 30.4 in Oeste 2 mph 3.1 mph 79% 0 in
02:54 51.6 °F 45.1 °F 30.4 in OSO 1.9 mph 4.7 mph 78.8% 0 in
02:59 51.6 °F 45 °F 30.4 in SSE 1.8 mph 5.8 mph 78% 0 in
03:04 51.6 °F 45 °F 30.4 in SSE 2.7 mph 6 mph 78% 0 in
03:09 51.6 °F 45 °F 30.4 in SSE 3.1 mph 5 mph 78% 0 in
03:14 51.6 °F 45 °F 30.4 in Sur 3 mph 5.8 mph 78% 0 in
03:19 51.4 °F 45 °F 30.4 in SSE 2.9 mph 6 mph 78.2% 0 in
03:24 51.4 °F 44.8 °F 30.4 in Sur 2.9 mph 5.9 mph 78.1% 0 in
03:29 51.3 °F 44.6 °F 30.4 in SSE 2.9 mph 6 mph 78% 0 in
03:34 51.3 °F 44.6 °F 30.4 in Sur 3.5 mph 6.2 mph 78% 0 in
03:39 51.3 °F 44.6 °F 30.4 in SE 4 mph 6 mph 78% 0 in
03:44 51.3 °F 44.6 °F 30.4 in SSE 3.8 mph 5.9 mph 78% 0 in
03:49 51.1 °F 44.4 °F 30.4 in Sur 3.6 mph 6.2 mph 78% 0 in
03:54 51.1 °F 44.4 °F 30.4 in Sur 3.9 mph 6 mph 78% 0 in
03:59 51.1 °F 44.2 °F 30.4 in SSO 4 mph 6.2 mph 77.3% 0 in
04:04 51.3 °F 44.4 °F 30.4 in SSO 3.8 mph 6 mph 77% 0 in
04:09 51.4 °F 44.2 °F 30.4 in SSO 3.6 mph 6 mph 76.1% 0 in
04:14 51.6 °F 44.2 °F 30.4 in SSO 3.6 mph 6.2 mph 76% 0 in
04:19 51.8 °F 44.2 °F 30.4 in SSE 3.6 mph 6 mph 75.5% 0 in
04:24 52 °F 44.2 °F 30.4 in Sur 3.6 mph 7.4 mph 75.1% 0 in
04:29 51.8 °F 44.1 °F 30.4 in Sur 3.6 mph 7 mph 75% 0 in
04:34 51.6 °F 44.1 °F 30.4 in SSE 3.6 mph 6.2 mph 75% 0 in
04:39 51.4 °F 43.9 °F 30.4 in SSE 3.6 mph 6.2 mph 75.6% 0 in
04:44 51.1 °F 44.1 °F 30.4 in Sur 3.9 mph 6 mph 76.8% 0 in
04:49 50.9 °F 43.9 °F 30.4 in SSE 4 mph 5.9 mph 77% 0 in
04:54 50.7 °F 43.9 °F 30.4 in SSE 4 mph 6 mph 77.3% 0 in
04:59 50.4 °F 43.9 °F 30.4 in SSE 4 mph 6.4 mph 78% 0 in
05:04 50 °F 43.7 °F 30.4 in SE 4 mph 7 mph 79% 0 in
05:09 49.8 °F 43.7 °F 30.4 in SSE 4 mph 6 mph 79.8% 0 in
05:14 49.6 °F 43.7 °F 30.4 in Sur 3.5 mph 5 mph 80% 0 in
05:19 49.6 °F 43.9 °F 30.4 in SSE 3.1 mph 5 mph 80.7% 0 in
05:24 49.6 °F 43.7 °F 30.4 in SSE 3.1 mph 5 mph 80% 0 in
05:29 49.5 °F 43.5 °F 30.4 in Sur 3.1 mph 5 mph 80.2% 0 in
05:34 49.5 °F 43.9 °F 30.4 in Sur 2.7 mph 4.6 mph 81% 0 in
05:39 49.5 °F 43.9 °F 30.4 in SSE 2.4 mph 5 mph 81% 0 in
05:44 49.5 °F 43.5 °F 30.4 in SE 2.4 mph 4.7 mph 80.1% 0 in
05:49 49.1 °F 43.3 °F 30.4 in SSE 2.4 mph 5 mph 80.6% 0 in
05:54 48.9 °F 43.3 °F 30.4 in SSE 2.8 mph 5.2 mph 81% 0 in
05:59 48.9 °F 43.3 °F 30.4 in SSE 3.1 mph 5 mph 81% 0 in
06:04 48.9 °F 43.3 °F 30.4 in SE 3.1 mph 5 mph 81% 0 in
06:09 48.9 °F 43.3 °F 30.4 in SSE 3.1 mph 6.2 mph 81% 0 in
06:14 48.7 °F 43.2 °F 30.4 in SSE 3.4 mph 6 mph 81% 0 in
06:19 48.7 °F 43.2 °F 30.4 in SSE 3.6 mph 6 mph 81.1% 0 in
06:24 48.7 °F 43.3 °F 30.4 in SSE 3.9 mph 5.9 mph 82% 0 in
06:29 48.7 °F 43.3 °F 30.4 in Sur 4 mph 6.9 mph 81.7% 0 in
06:34 48.9 °F 43.3 °F 30.4 in SSE 4.2 mph 7.4 mph 81% 0 in
06:39 48.9 °F 43.3 °F 30.4 in Sur 4.3 mph 7 mph 81% 0 in
06:44 49.1 °F 43.3 °F 30.4 in Sur 4.5 mph 7 mph 81% 0 in
06:49 49.1 °F 43.5 °F 30.4 in SSE 4.7 mph 6.2 mph 81% 0 in
06:54 49.3 °F 43.3 °F 30.4 in Sur 4.5 mph 6.9 mph 80% 0 in
06:59 49.3 °F 43.3 °F 30.4 in Sur 4.3 mph 7 mph 80% 0 in
07:04 49.3 °F 43.3 °F 30.4 in Sur 4.3 mph 6.2 mph 80% 0 in
07:09 49.3 °F 43.3 °F 30.4 in SSE 4.3 mph 6 mph 80% 0 in
07:14 49.3 °F 43.3 °F 30.4 in SSE 3.9 mph 6 mph 80% 0 in
07:19 49.3 °F 43.3 °F 30.4 in SSE 3.6 mph 6 mph 80% 0 in
07:24 48.9 °F 43 °F 30.4 in Sur 3.6 mph 6 mph 80% 0 in
07:29 48.9 °F 43 °F 30.4 in Sur 3.6 mph 6.2 mph 80% 0 in
07:34 48.9 °F 43.2 °F 30.4 in Sur 3.9 mph 6.9 mph 80% 0 in
07:39 49.1 °F 43.3 °F 30.4 in Sur 4 mph 7 mph 80% 0 in
07:44 49.3 °F 43.3 °F 30.4 in Sur 4 mph 7 mph 79.8% 0 in
07:49 49.3 °F 43 °F 30.4 in Sur 4 mph 6 mph 79% 0 in
07:54 49.3 °F 43 °F 30.4 in SSE 3.8 mph 6 mph 79% 0 in
07:59 49.3 °F 43 °F 30.4 in SSE 3.6 mph 6 mph 79% 0 in
08:04 49.1 °F 43 °F 30.4 in SSE 3.6 mph 6 mph 79% 0 in
08:09 48.9 °F 43 °F 30.4 in SSE 3.6 mph 5.8 mph 79.7% 0 in
08:14 48.7 °F 42.8 °F 30.4 in SSE 3.3 mph 6 mph 80% 0 in
08:19 48.7 °F 42.8 °F 30.4 in Sur 3.1 mph 6 mph 80% 0 in
08:24 48.9 °F 43 °F 30.4 in SSE 3.4 mph 5 mph 80% 0 in
08:29 48.7 °F 43 °F 30.4 in ESE 3.6 mph 5 mph 80% 0 in
08:34 48.6 °F 42.6 °F 30.4 in SE 3.3 mph 6.2 mph 80% 0 in
08:39 48.2 °F 42.6 °F 30.4 in SSE 3.1 mph 6 mph 81% 0 in
08:44 48 °F 42.4 °F 30.4 in SSE 3.6 mph 6 mph 81% 0 in
08:49 48.2 °F 43 °F 30.4 in Sur 4 mph 6.2 mph 82% 0 in
08:54 48.4 °F 42.8 °F 30.4 in Sur 4 mph 6.9 mph 81% 0 in
08:59 48.6 °F 43 °F 30.4 in Sur 4 mph 7 mph 80.9% 0 in
09:04 48.7 °F 42.8 °F 30.4 in SSE 4.2 mph 7 mph 80% 0 in
09:09 48.7 °F 42.8 °F 30.4 in SSE 4.3 mph 6.2 mph 80% 0 in
09:14 48.7 °F 42.8 °F 30.4 in SSE 4.3 mph 7.4 mph 80% 0 in
09:19 48.7 °F 43 °F 30.4 in SSE 4.3 mph 7 mph 80% 0 in
09:24 49.1 °F 43 °F 30.4 in SSE 4.8 mph 7 mph 79.8% 0 in
09:29 49.3 °F 43 °F 30.4 in SSE 5.2 mph 7.4 mph 79% 0 in
09:34 49.5 °F 43.2 °F 30.4 in SSE 5.2 mph 8.1 mph 78.5% 0 in
09:39 49.6 °F 43.2 °F 30.4 in Sur 5.2 mph 8 mph 78% 0 in
09:44 50 °F 43.3 °F 30.4 in SSE 4.9 mph 7 mph 77.7% 0 in
09:49 50.5 °F 43.5 °F 30.4 in SSE 4.7 mph 7 mph 77% 0 in
09:54 50.9 °F 43.7 °F 30.4 in SSE 4.5 mph 6 mph 76.2% 0 in
09:59 51.3 °F 43.7 °F 30.4 in Sur 4.3 mph 6.2 mph 75.3% 0 in
10:04 51.4 °F 43.9 °F 30.4 in Sur 4.1 mph 6.2 mph 75% 0 in
10:09 52 °F 44.1 °F 30.4 in Sur 4 mph 6.9 mph 74.4% 0 in
10:14 52.3 °F 44.1 °F 30.4 in Sur 4 mph 7 mph 73.4% 0 in
10:19 52.7 °F 44.1 °F 30.4 in SSO 4 mph 6 mph 72.6% 0 in
10:24 52.9 °F 44.1 °F 30.4 in SSO 3.8 mph 6.2 mph 71.9% 0 in
10:29 52.9 °F 43.9 °F 30.4 in SSO 3.6 mph 6 mph 71.5% 0 in
10:34 53.1 °F 43.9 °F 30.4 in Sur 3.6 mph 6 mph 71.1% 0 in
10:39 53.1 °F 44.2 °F 30.4 in Sur 3.6 mph 6.2 mph 71.6% 0 in
10:44 53.2 °F 44.4 °F 30.4 in Sur 3.6 mph 6 mph 72% 0 in
10:49 53.4 °F 44.2 °F 30.4 in Sur 3.6 mph 7.4 mph 71.1% 0 in
10:54 53.4 °F 44.2 °F 30.4 in Sur 4.2 mph 8.1 mph 70.9% 0 in
10:59 53.8 °F 44.4 °F 30.4 in SSO 4.7 mph 8.5 mph 70.5% 0 in
11:04 54 °F 44.6 °F 30.4 in Sur 5 mph 9 mph 70.6% 0 in
11:09 54.1 °F 44.4 °F 30.4 in Sur 5.2 mph 7 mph 69.6% 0 in
11:14 54.3 °F 44.6 °F 30.4 in Sur 4.7 mph 7 mph 69.5% 0 in
11:19 54.7 °F 44.8 °F 30.4 in Sur 4.3 mph 6.2 mph 69.2% 0 in
11:24 54.9 °F 44.8 °F 30.4 in Sur 3.9 mph 6 mph 68.7% 0 in
11:29 55.2 °F 45 °F 30.4 in Sur 3.6 mph 6 mph 68.6% 0 in
11:34 55.6 °F 45 °F 30.4 in SSO 3.3 mph 6 mph 67.6% 0 in
11:39 55.8 °F 45 °F 30.4 in Sur 3.1 mph 6 mph 67% 0 in
11:44 56.1 °F 45 °F 30.4 in OSO 3 mph 5 mph 66.2% 0 in
11:49 56.7 °F 45.3 °F 30.4 in Sur 2.9 mph 5 mph 66.1% 0 in
11:54 57 °F 45.3 °F 30.4 in SO 2.2 mph 5 mph 64.9% 0 in
11:59 57.4 °F 45.3 °F 30.4 in SO 1.8 mph 5 mph 64.2% 0 in
12:04 57.7 °F 45.7 °F 30.4 in SO 1.9 mph 4.6 mph 64.1% 0 in
12:09 58.1 °F 45.5 °F 30.4 in Oeste 2 mph 5 mph 63% 0 in
12:14 58.3 °F 45.7 °F 30.4 in Oeste 2.5 mph 5 mph 63% 0 in
12:19 58.3 °F 45.7 °F 30.4 in Oeste 2.9 mph 5 mph 63% 0 in
12:24 58.6 °F 46 °F 30.4 in OSO 2.4 mph 5.2 mph 63% 0 in
12:29 59.2 °F 46.2 °F 30.4 in SO 2 mph 5.2 mph 62% 0 in
12:34 59.4 °F 46.2 °F 30.4 in OSO 2.7 mph 5 mph 62% 0 in
12:39 59.5 °F 46.4 °F 30.4 in SO 3.1 mph 5 mph 61.8% 0 in
12:44 59.9 °F 46.4 °F 30.4 in Oeste 2.5 mph 5 mph 61% 0 in
12:49 60.3 °F 46.8 °F 30.4 in OSO 2 mph 3.6 mph 60.9% 0 in
12:54 60.6 °F 46.8 °F 30.4 in SO 1.9 mph 4.6 mph 60.1% 0 in
12:59 61.2 °F 47.3 °F 30.4 in SE 1.8 mph 5.2 mph 60.1% 0 in
13:04 61.5 °F 47.8 °F 30.4 in SSE 2.2 mph 5 mph 60.9% 0 in
13:09 62.1 °F 48 °F 30.4 in SE 2.4 mph 5 mph 60.3% 0 in
13:14 62.2 °F 48.6 °F 30.4 in SE 2.4 mph 5 mph 61% 0 in
13:19 62.6 °F 48.7 °F 30.4 in Este 2.4 mph 4.7 mph 60.3% 0 in
13:24 63 °F 48.4 °F 30.4 in NE 2.1 mph 5 mph 59.2% 0 in
13:29 62.8 °F 48.7 °F 30.4 in ESE 1.8 mph 5.2 mph 60% 0 in
13:34 63 °F 48.7 °F 30.4 in ESE 2.2 mph 5.2 mph 60% 0 in
13:39 63.1 °F 49.1 °F 30.4 in ENE 2.4 mph 5 mph 60.2% 0 in
13:44 63.1 °F 48.9 °F 30.3 in ENE 2.2 mph 4.6 mph 60% 0 in
13:49 63 °F 48.9 °F 30.3 in Este 2 mph 5 mph 60% 0 in
13:54 63 °F 48.9 °F 30.3 in SE 2.2 mph 5 mph 60% 0 in
13:59 63 °F 48.9 °F 30.3 in Oeste 2.4 mph 5.2 mph 60% 0 in
14:04 63.1 °F 48.9 °F 30.3 in Oeste 2.1 mph 6.2 mph 59.9% 0 in
14:09 63 °F 48.9 °F 30.3 in Oeste 2 mph 6 mph 60% 0 in
14:14 63.1 °F 49.1 °F 30.3 in Sur 2.5 mph 5.8 mph 60% 0 in
14:19 63.3 °F 49.1 °F 30.3 in SSO 2.9 mph 6 mph 59.8% 0 in
14:24 63.5 °F 48.9 °F 30.3 in Oeste 2.6 mph 5.2 mph 59% 0 in
14:29 63.7 °F 48.9 °F 30.3 in NNO 2.4 mph 5 mph 59% 0 in
14:34 63.9 °F 48.9 °F 30.3 in ESE 2.1 mph 4.7 mph 58.3% 0 in
14:39 63.9 °F 48.7 °F 30.3 in SE 1.8 mph 5 mph 57.8% 0 in
14:44 64 °F 48.7 °F 30.3 in Sur 2.2 mph 5 mph 57.5% 0 in
14:49 64.2 °F 48.7 °F 30.3 in SO 2.4 mph 7.4 mph 57% 0 in
14:54 64.2 °F 48.7 °F 30.3 in SSO 2.7 mph 7 mph 57% 0 in
14:59 64.2 °F 48.7 °F 30.3 in SE 2.9 mph 5.9 mph 57% 0 in
15:04 64.2 °F 48.6 °F 30.3 in SE 3 mph 6 mph 56.9% 0 in
15:09 64 °F 48.4 °F 30.3 in ESE 3.1 mph 5 mph 56.5% 0 in
15:14 64.2 °F 48.4 °F 30.3 in SE 2.7 mph 6.2 mph 56.3% 0 in
15:19 64.2 °F 48.4 °F 30.3 in SE 2.4 mph 6 mph 56.1% 0 in
15:24 64.6 °F 48.2 °F 30.3 in ESE 2.7 mph 5 mph 55.5% 0 in
15:29 64.6 °F 48 °F 30.3 in SSE 2.9 mph 5 mph 55% 0 in
15:34 64.8 °F 48.2 °F 30.3 in Sur 2.9 mph 6.9 mph 55.2% 0 in
15:39 64.8 °F 48 °F 30.3 in SSO 2.9 mph 7 mph 54.6% 0 in
15:44 64.8 °F 47.8 °F 30.3 in SO 2.9 mph 5 mph 54% 0 in
15:49 65.1 °F 47.5 °F 30.3 in SO 2.9 mph 3 mph 53% 0 in
15:54 65.5 °F 47.8 °F 30.3 in SO 1.2 mph 3.1 mph 52.8% 0 in
15:59 65.7 °F 47.3 °F 30.3 in Calm   3.6 mph 51.8% 0 in
16:04 65.5 °F 47.5 °F 30.3 in ENE 1.3 mph 5.2 mph 52% 0 in
16:09 65.3 °F 47.3 °F 30.3 in NE 2 mph 5 mph 52.1% 0 in
16:14 64.9 °F 47.3 °F 30.3 in NNE 2.5 mph 5.8 mph 52.9% 0 in
16:19 64.8 °F 47.1 °F 30.3 in NNE 2.9 mph 6 mph 53% 0 in
16:24 64.6 °F 47.5 °F 30.3 in NNE 2.6 mph 5 mph 53.6% 0 in
16:29 64.8 °F 47.1 °F 30.3 in NNE 2.4 mph 4.6 mph 52.9% 0 in
16:34 64.6 °F 46.8 °F 30.3 in NE 2.4 mph 5 mph 52.3% 0 in
16:39 64.6 °F 47.1 °F 30.3 in NE 2.4 mph 5 mph 53% 0 in
16:44 64.6 °F 47.3 °F 30.3 in NE 2.7 mph 5 mph 53.4% 0 in
16:49 64.6 °F 47.7 °F 30.3 in ENE 2.9 mph 5 mph 54% 0 in
16:54 64.6 °F 47.7 °F 30.3 in ENE 2.5 mph 5 mph 54% 0 in
16:59 64.4 °F 47.3 °F 30.3 in NE 2.4 mph 5.2 mph 54% 0 in
17:04 64.2 °F 47.3 °F 30.3 in ENE 2.9 mph 5 mph 54.1% 0 in
17:09 64.2 °F 47.5 °F 30.3 in NE 3.1 mph 5.2 mph 54.5% 0 in
17:14 64 °F 47.5 °F 30.3 in NE 3 mph 5 mph 55.1% 0 in
17:19 64 °F 48 °F 30.3 in NE 2.9 mph 5 mph 56% 0 in
17:24 63.9 °F 48 °F 30.3 in ENE 2.9 mph 5 mph 56.1% 0 in
17:29 63.9 °F 48.2 °F 30.3 in NE 2.9 mph 5 mph 56.9% 0 in
17:34 63.7 °F 48.2 °F 30.3 in ENE 2.6 mph 5 mph 57% 0 in
17:39 63.5 °F 48.4 °F 30.3 in Este 2.4 mph 5 mph 57.6% 0 in
17:44 63.3 °F 48.4 °F 30.3 in ENE 2.4 mph 5 mph 58% 0 in
17:49 63.1 °F 48 °F 30.3 in ENE 2.4 mph 5.8 mph 58.2% 0 in
17:54 63 °F 48.4 °F 30.3 in ENE 2.4 mph 6 mph 59% 0 in
17:59 62.6 °F 48.4 °F 30.3 in ENE 2.4 mph 5 mph 59.5% 0 in
18:04 62.4 °F 48.4 °F 30.3 in Este 2.1 mph 4 mph 60% 0 in
18:09 62.2 °F 48.4 °F 30.3 in Este 2 mph 5 mph 60.5% 0 in
18:14 62.2 °F 48.6 °F 30.3 in ESE 2.2 mph 5 mph 61.3% 0 in
18:19 61.9 °F 48.7 °F 30.3 in ESE 2.4 mph 5 mph 62% 0 in
18:24 61.5 °F 48.7 °F 30.3 in ESE 2.7 mph 5 mph 63.1% 0 in
18:29 61.2 °F 48.9 °F 30.3 in ESE 2.9 mph 5 mph 64.5% 0 in
18:34 60.6 °F 49.1 °F 30.3 in ESE 2.9 mph 5 mph 65.9% 0 in
18:39 60.3 °F 49.6 °F 30.3 in ESE 2.9 mph 5.2 mph 67.9% 0 in
18:44 59.9 °F 50 °F 30.3 in ESE 2.9 mph 6.2 mph 69.9% 0 in
18:49 59.5 °F 50.4 °F 30.3 in ESE 2.9 mph 6 mph 71.7% 0 in
18:54 59.4 °F 50.7 °F 30.3 in ESE 3 mph 6 mph 73.1% 0 in
18:59 59 °F 50.9 °F 30.3 in ESE 3.1 mph 5.8 mph 74.4% 0 in
19:04 58.8 °F 51.1 °F 30.3 in ESE 3 mph 6 mph 75.4% 0 in
19:09 58.6 °F 51.3 °F 30.3 in Este 2.9 mph 5.2 mph 76.5% 0 in
19:14 58.5 °F 51.4 °F 30.3 in Este 2.6 mph 5 mph 77.4% 0 in
19:19 58.3 °F 51.4 °F 30.3 in ESE 2.4 mph 5.2 mph 78.3% 0 in
19:24 57.9 °F 51.4 °F 30.3 in ESE 2.7 mph 5 mph 79% 0 in
19:29 57.9 °F 51.4 °F 30.3 in ESE 2.9 mph 4.6 mph 79% 0 in
19:34 57.7 °F 51.3 °F 30.3 in ESE 2.4 mph 5 mph 79% 0 in
19:39 57.7 °F 51.4 °F 30.3 in ESE 2 mph 3.5 mph 79.8% 0 in
19:44 57.6 °F 51.1 °F 30.3 in ENE 2 mph 5.2 mph 78.9% 0 in
19:49 57.2 °F 50.4 °F 30.3 in NNE 2 mph 5 mph 77.5% 0 in
19:54 56.8 °F 49.8 °F 30.3 in NNE 2.5 mph 5 mph 77% 0 in
19:59 56.7 °F 49.6 °F 30.3 in NNE 2.9 mph 4 mph 77% 0 in
20:04 56.5 °F 49.5 °F 30.3 in NE 2.5 mph 5 mph 77% 0 in
20:09 56.1 °F 49.3 °F 30.3 in NE 2.4 mph 5.8 mph 77.9% 0 in
20:14 55.8 °F 49.3 °F 30.3 in NE 2.4 mph 6 mph 78.9% 0 in
20:19 55.6 °F 49.5 °F 30.3 in NE 2.4 mph 5 mph 79.7% 0 in
20:24 55.4 °F 49.3 °F 30.3 in NE 2.1 mph 3 mph 80% 0 in
20:29 55.2 °F 49.5 °F 30.3 in NE 1.8 mph 3 mph 81% 0 in
20:34 55 °F 49.5 °F 30.3 in NE 0.7 mph   81.2% 0 in
20:39 55 °F 49.6 °F 30.3 in Calm     82% 0 in
20:44 54.9 °F 49.5 °F 30.3 in Calm     82% 0 in
20:49 54.9 °F 49.5 °F 30.3 in Calm     82% 0 in
20:54 54.7 °F 49.5 °F 30.3 in Calm     82.3% 0 in
20:59 54.7 °F 49.6 °F 30.3 in Calm   4 mph 83% 0 in
21:04 54.7 °F 49.6 °F 30.3 in Sur 0.9 mph 5 mph 83% 0 in
21:09 54.9 °F 50 °F 30.3 in Sur 1.4 mph 5 mph 83.5% 0 in
21:14 54.9 °F 49.8 °F 30.3 in Sur 2.3 mph 5 mph 82.9% 0 in
21:19 54.9 °F 49.3 °F 30.3 in Sur 2.9 mph 5 mph 81.5% 0 in
21:24 54.9 °F 49.1 °F 30.3 in Sur 2.6 mph 5 mph 80.6% 0 in
21:29 54.9 °F 48.7 °F 30.3 in Sur 2.4 mph 5 mph 80% 0 in
21:34 54.9 °F 48.7 °F 30.3 in Sur 1.8 mph 3.6 mph 80.1% 0 in
21:39 54.5 °F 48.7 °F 30.3 in Sur 1.4 mph 4 mph 81% 0 in
21:44 54.1 °F 48.6 °F 30.3 in Sur 1.4 mph 2.9 mph 81% 0 in
21:49 54 °F 48.6 °F 30.3 in Sur 1.4 mph 3 mph 82% 0 in
21:54 53.8 °F 48.4 °F 30.3 in Sur 0.6 mph 1 mph 82% 0 in
21:59 53.6 °F 48.2 °F 30.3 in Calm   2.4 mph 82% 0 in
22:04 53.4 °F 48 °F 30.3 in Calm   2.3 mph 82% 0 in
22:09 53.2 °F 48.2 °F 30.3 in Calm   2 mph 82.7% 0 in
22:14 53.1 °F 48 °F 30.3 in Calm     83% 0 in
22:19 53.1 °F 48 °F 30.3 in Calm   2.3 mph 83% 0 in
22:24 53.1 °F 48 °F 30.3 in Calm   3.1 mph 83% 0 in
22:29 52.9 °F 47.8 °F 30.3 in Calm   3.5 mph 83% 0 in
22:34 52.7 °F 47.8 °F 30.3 in SE 1.1 mph 3.6 mph 83% 0 in
22:39 52.5 °F 47.5 °F 30.3 in SE 1.8 mph 5.2 mph 83% 0 in
22:44 52.3 °F 47.3 °F 30.3 in SE 2.2 mph 5 mph 83% 0 in
22:49 52.2 °F 47.3 °F 30.3 in SE 2.4 mph 5 mph 83% 0 in
22:54 52 °F 47.3 °F 30.3 in SE 2.4 mph 5 mph 83.7% 0 in
22:59 51.8 °F 47.1 °F 30.3 in SE 2.4 mph 4.6 mph 84% 0 in
23:04 51.6 °F 46.9 °F 30.3 in SE 2.2 mph 5 mph 84% 0 in
23:09 51.4 °F 46.8 °F 30.3 in SE 2 mph 3 mph 84% 0 in
23:14 51.3 °F 46.8 °F 30.3 in SE 1.6 mph 3.5 mph 84% 0 in
23:19 51.3 °F 46.6 °F 30.3 in SE 1.4 mph 3 mph 84% 0 in
23:24 51.1 °F 46.8 °F 30.3 in SE 0.6 mph 2 mph 84.9% 0 in
23:29 50.9 °F 46.6 °F 30.3 in Calm   2.4 mph 85% 0 in
23:34 50.7 °F 46.2 °F 30.3 in Calm   3.5 mph 84.7% 0 in
23:39 50.4 °F 45.7 °F 30.4 in Calm   4.6 mph 84.2% 0 in
23:44 49.8 °F 45.7 °F 30.4 in NE 1.4 mph 5 mph 85.4% 0 in
23:49 49.6 °F 45.7 °F 30.4 in NE 2.4 mph 5 mph 86.4% 0 in
23:54 49.5 °F 45.9 °F 30.4 in ENE 2.7 mph 5 mph 87.2% 0 in
23:59 49.5 °F 46 °F 30.4 in ENE 2.9 mph 5 mph 88% 0 in
Murcia-Puente Tocinos, España
Compliments of Weather Underground - 2.75 mb

La estación de MeteoMurcia.com, publica sus datos en los siguientes proyectos:

Weather Underground PWS IMURCIAP2 Meteoclimatic www.awekas.at

W3Counter
Web Analytics